Time;durP1;ratioP1;P1;durP2;ratioP2;P2;SDS_P1;SDS_P2;PMS_P1;PMS_P2;Temp;Humidity;BMP_temperature;BMP_pressure;BME280_temperature;BME280_humidity;BME280_pressure;Samples;Min_cycle;Max_cycle;Signal;HPM_P1;HPM_P2
2021/12/12 00:01:20;;;;;;;;;10.25;7.50;;;;;8.05;74.84;101961.28;4991643;28;45408;-69
2021/12/12 00:03:50;;;;;;;;;14.75;10.00;;;;;8.08;75.23;101969.34;4999392;28;45340;-69
2021/12/12 00:06:21;;;;;;;;;19.50;18.50;;;;;8.06;73.79;101964.81;4998590;28;45322;-69
2021/12/12 00:08:55;;;;;;;;;14.00;9.25;;;;;8.01;75.05;101956.69;5014725;28;47399;-69
2021/12/12 00:11:29;;;;;;;;;14.50;13.00;;;;;7.81;75.60;101915.22;5001760;28;45183;-69
2021/12/12 00:14:11;;;;;;;;;10.50;8.00;;;;;7.97;74.02;101938.91;5002828;28;45251;-69
2021/12/12 00:16:37;;;;;;;;;15.50;14.50;;;;;8.09;73.73;101954.44;5001983;28;45392;-69
2021/12/12 00:19:04;;;;;;;;;15.25;10.25;;;;;8.10;74.58;101961.53;5002400;28;45246;-69
2021/12/12 00:21:33;;;;;;;;;12.50;8.75;;;;;8.11;75.01;101958.06;5001854;28;45424;-70
2021/12/12 00:23:59;;;;;;;;;14.50;11.25;;;;;8.07;75.24;101950.84;5002515;28;45365;-69
2021/12/12 00:26:25;;;;;;;;;14.25;10.75;;;;;8.05;74.56;101941.94;5001465;28;45338;-69
2021/12/12 00:28:52;;;;;;;;;9.75;9.75;;;;;8.07;75.34;101951.75;5002412;28;45317;-70
2021/12/12 00:31:19;;;;;;;;;14.00;10.50;;;;;8.13;75.64;101960.78;5001779;28;45498;-69
2021/12/12 00:33:49;;;;;;;;;9.25;9.25;;;;;8.08;76.51;101955.28;5017417;28;45298;-70
2021/12/12 00:36:18;;;;;;;;;27.00;21.00;;;;;8.07;76.68;101946.47;5001584;28;45334;-70
2021/12/12 00:38:48;;;;;;;;;13.50;10.50;;;;;8.09;75.51;101949.16;4996232;28;45328;-70
2021/12/12 00:41:16;;;;;;;;;10.25;10.00;;;;;8.18;76.19;101961.94;5001603;28;45365;-70
2021/12/12 00:43:50;;;;;;;;;13.00;9.50;;;;;7.94;75.73;101916.78;5017570;28;45317;-70
2021/12/12 00:46:20;;;;;;;;;13.25;11.25;;;;;7.94;75.51;101927.31;5001382;28;45612;-70
2021/12/12 00:48:47;;;;;;;;;12.25;9.25;;;;;8.13;74.17;101960.78;5017199;28;47054;-70
2021/12/12 00:51:16;;;;;;;;;12.00;12.00;;;;;8.10;76.82;101955.38;5000038;28;45469;-70
2021/12/12 00:53:43;;;;;;;;;11.75;10.25;;;;;8.16;77.37;101966.22;5001956;28;45276;-70
2021/12/12 00:56:09;;;;;;;;;13.25;12.00;;;;;8.05;76.75;101947.22;5001484;28;45496;-70
2021/12/12 00:58:35;;;;;;;;;12.75;12.00;;;;;8.18;76.65;101970.75;5001735;28;45360;-70
2021/12/12 01:01:18;;;;;;;;;15.50;12.00;;;;;8.15;76.84;101957.44;5001404;28;45247;-70
2021/12/12 01:03:49;;;;;;;;;10.00;10.00;;;;;8.17;77.03;101966.28;5016693;28;45341;-70
2021/12/12 01:06:16;;;;;;;;;10.75;10.00;;;;;8.19;76.80;101966.38;5001467;28;45314;-70
2021/12/12 01:08:44;;;;;;;;;16.75;10.00;;;;;8.19;77.08;101966.38;4999520;28;46883;-70
2021/12/12 01:11:27;;;;;;;;;10.50;7.00;;;;;8.05;76.11;101934.94;4999784;28;45354;-70
2021/12/12 01:13:53;;;;;;;;;12.00;9.00;;;;;8.21;76.89;101959.47;5001915;28;45168;-70
2021/12/12 01:16:27;;;;;;;;;14.75;13.75;;;;;8.12;75.85;101933.53;4999675;28;47531;-70
2021/12/12 01:19:01;;;;;;;;;13.00;10.00;;;;;8.08;76.74;101932.47;5016050;28;46586;-71
2021/12/12 01:21:35;;;;;;;;;11.25;10.25;;;;;8.05;77.41;101931.41;4999723;28;44932;-70
2021/12/12 01:24:13;;;;;;;;;10.75;9.00;;;;;8.17;76.64;101953.13;5016804;28;45349;-71
2021/12/12 01:26:41;;;;;;;;;8.25;7.00;;;;;8.09;77.68;101936.00;5000686;28;45226;-70
2021/12/12 01:29:10;;;;;;;;;14.25;9.25;;;;;8.15;78.23;101945.97;4983794;28;46156;-71
2021/12/12 01:31:39;;;;;;;;;8.50;8.50;;;;;8.11;75.74;101955.44;5000730;28;45401;-71
2021/12/12 01:34:11;;;;;;;;;11.25;8.75;;;;;8.19;76.68;101963.75;5016752;28;45285;-71
2021/12/12 01:36:51;;;;;;;;;8.00;8.00;;;;;8.06;77.28;101943.75;5000712;28;45218;-72
2021/12/12 01:39:20;;;;;;;;;10.00;9.25;;;;;8.02;77.30;101931.25;5016308;28;46895;-71
2021/12/12 01:42:16;;;;;;;;;10.50;8.75;;;;;8.15;77.47;101961.75;5000394;28;45377;-71
2021/12/12 01:44:50;;;;;;;;;7.00;7.00;;;;;8.21;76.50;101973.53;4991314;28;45345;-71
2021/12/12 01:47:20;;;;;;;;;8.50;7.00;;;;;8.15;75.99;101961.75;4999178;28;46162;-71
2021/12/12 01:49:51;;;;;;;;;9.25;8.25;;;;;8.12;78.39;101959.88;5001097;28;45264;-71
2021/12/12 01:52:22;;;;;;;;;7.00;5.00;;;;;7.98;76.31;101932.84;5000394;28;45417;-71
2021/12/12 01:54:50;;;;;;;;;8.00;8.00;;;;;8.13;78.17;101958.16;5015521;28;45377;-71
2021/12/12 01:57:21;;;;;;;;;7.25;7.00;;;;;8.12;77.90;101969.50;4999211;28;45470;-71
2021/12/12 01:59:48;;;;;;;;;6.50;6.50;;;;;8.20;77.77;101979.63;5001241;28;46490;-71
2021/12/12 02:02:19;;;;;;;;;5.00;4.00;;;;;8.10;76.92;101966.81;5000285;28;45375;-71
2021/12/12 02:04:49;;;;;;;;;4.00;4.00;;;;;8.09;77.81;101964.97;5001172;28;45179;-71
2021/12/12 02:07:21;;;;;;;;;6.50;6.50;;;;;8.19;77.46;101983.09;5000258;28;45544;-71
2021/12/12 02:09:48;;;;;;;;;7.50;6.00;;;;;8.02;77.12;101953.22;5015941;28;47038;-71
2021/12/12 02:12:15;;;;;;;;;5.25;5.25;;;;;8.22;78.49;101987.63;4992888;28;45347;-71
2021/12/12 02:14:42;;;;;;;;;7.00;6.75;;;;;8.26;78.10;101990.50;5016204;28;45452;-71
2021/12/12 02:17:23;;;;;;;;;3.25;3.00;;;;;8.19;77.79;101979.56;4998874;28;46579;-71
2021/12/12 02:20:13;;;;;;;;;3.50;3.00;;;;;8.19;77.17;101971.66;4998736;28;45642;-71
2021/12/12 02:36:29;;;;;;;;;5.25;5.25;;;;;8.29;76.97;101988.03;5000037;28;45337;-72
2021/12/12 02:38:55;;;;;;;;;6.50;5.00;;;;;8.26;78.41;101985.22;5015458;28;46024;-72
2021/12/12 02:41:23;;;;;;;;;4.00;4.00;;;;;8.32;77.93;101995.19;4999441;28;46226;-72
2021/12/12 02:43:52;;;;;;;;;5.25;5.25;;;;;8.37;77.49;101998.03;5015581;28;46016;-72
2021/12/12 02:46:28;;;;;;;;;7.75;5.00;;;;;8.19;78.50;101969.00;4998137;28;44748;-72
2021/12/12 02:49:04;;;;;;;;;7.00;7.00;;;;;8.34;78.07;101996.16;4998974;28;45976;-72
2021/12/12 02:51:30;;;;;;;;;9.25;5.75;;;;;8.25;78.38;101982.50;4999637;28;46441;-72
2021/12/12 02:53:58;;;;;;;;;5.50;5.00;;;;;8.27;77.96;101983.50;5000000;28;45306;-72
2021/12/12 02:56:28;;;;;;;;;7.00;5.50;;;;;8.34;79.09;102001.41;4999427;28;45297;-71
2021/12/12 02:58:55;;;;;;;;;3.75;3.75;;;;;8.41;78.19;102015.88;5015166;28;46307;-72
2021/12/12 03:01:32;;;;;;;;;5.00;4.50;;;;;8.44;78.19;102016.94;4999418;28;46179;-71
2021/12/12 03:03:57;;;;;;;;;4.25;4.25;;;;;8.46;77.92;102017.03;4993641;28;45275;-71
2021/12/12 03:06:28;;;;;;;;;6.75;6.75;;;;;8.47;78.14;102016.19;4999579;28;45417;-71
2021/12/12 03:09:04;;;;;;;;;8.75;5.25;;;;;8.47;78.13;102016.19;4998610;28;47554;-71
2021/12/12 03:11:30;;;;;;;;;4.50;4.50;;;;;8.34;78.38;101996.16;4999029;28;46760;-71
2021/12/12 03:13:56;;;;;;;;;9.50;9.50;;;;;8.46;78.14;102019.66;4999940;28;45345;-71
2021/12/12 03:16:22;;;;;;;;;9.75;4.00;;;;;8.45;78.12;102018.72;4999520;28;45613;-71
2021/12/12 03:18:48;;;;;;;;;5.00;5.00;;;;;8.48;78.16;102020.63;5000015;28;45696;-71
2021/12/12 03:21:18;;;;;;;;;6.75;6.50;;;;;8.47;78.20;102017.09;4997730;28;47186;-71
2021/12/12 03:23:51;;;;;;;;;5.00;5.00;;;;;8.33;77.46;101989.06;5014959;28;45413;-71
2021/12/12 03:26:19;;;;;;;;;9.00;4.75;;;;;8.51;78.43;102020.78;4998959;28;45455;-71
2021/12/12 03:28:48;;;;;;;;;4.75;4.75;;;;;8.41;78.31;102000.97;4999769;28;45440;-72
2021/12/12 03:31:18;;;;;;;;;5.00;5.00;;;;;8.45;77.49;102000.28;4999047;28;45512;-72
2021/12/12 03:33:44;;;;;;;;;7.00;7.00;;;;;8.46;77.72;102002.13;4999726;28;45282;-72
2021/12/12 03:36:12;;;;;;;;;5.75;5.75;;;;;8.47;78.05;102000.38;5014402;28;45397;-71
2021/12/12 03:38:40;;;;;;;;;8.00;7.00;;;;;8.50;77.92;102011.06;4991358;28;45888;-72
2021/12/12 03:41:10;;;;;;;;;7.00;5.00;;;;;8.45;78.46;101997.66;4992779;28;47302;-72
2021/12/12 03:43:36;;;;;;;;;6.75;6.00;;;;;8.54;78.52;102012.13;4992886;28;45271;-72
2021/12/12 03:46:06;;;;;;;;;7.75;7.00;;;;;8.50;77.54;102003.16;4999194;28;45336;-72
2021/12/12 03:48:34;;;;;;;;;9.75;9.00;;;;;8.40;78.24;101985.06;4999286;28;45397;-72
2021/12/12 03:51:02;;;;;;;;;7.75;5.00;;;;;8.48;78.30;101999.53;4998833;28;45611;-72
2021/12/12 03:53:30;;;;;;;;;4.25;4.25;;;;;8.50;77.43;102000.53;4999339;28;45271;-72
2021/12/12 03:55:56;;;;;;;;;8.75;5.00;;;;;8.61;77.69;102017.81;4999050;28;45436;-71
2021/12/12 03:58:22;;;;;;;;;9.75;6.75;;;;;8.62;77.02;102021.34;4998885;28;45253;-72
2021/12/12 04:00:51;;;;;;;;;7.00;5.00;;;;;8.63;77.71;102017.91;4998816;28;46240;-72
2021/12/12 04:03:17;;;;;;;;;9.50;7.25;;;;;8.63;78.39;102028.44;4999157;28;45490;-72
2021/12/12 04:05:48;;;;;;;;;8.25;8.25;;;;;8.61;78.17;102017.81;4997593;28;45261;-72
2021/12/12 04:08:14;;;;;;;;;9.75;9.00;;;;;8.66;77.78;102028.59;4998897;28;45466;-72
2021/12/12 04:10:40;;;;;;;;;9.00;8.25;;;;;8.60;78.50;102008.09;4995881;28;47150;-71
2021/12/12 04:13:06;;;;;;;;;8.50;7.00;;;;;8.63;78.11;102023.16;4998936;28;45412;-72
2021/12/12 04:15:31;;;;;;;;;8.00;8.00;;;;;8.56;77.76;102008.75;4998817;28;45551;-72
2021/12/12 04:17:57;;;;;;;;;11.50;10.25;;;;;8.57;79.28;102010.59;4996702;28;45358;-72
2021/12/12 04:20:30;;;;;;;;;8.50;7.75;;;;;8.58;77.83;102014.13;4997335;28;46889;-72
2021/12/12 04:22:55;;;;;;;;;10.00;10.00;;;;;8.58;78.41;102019.38;5012988;28;45400;-72
2021/12/12 04:25:22;;;;;;;;;10.25;9.00;;;;;8.59;78.70;102014.19;4998680;28;45294;-72
2021/12/12 04:27:49;;;;;;;;;8.75;8.00;;;;;8.69;78.24;102023.47;5011837;28;46558;-72
2021/12/12 04:30:15;;;;;;;;;10.75;10.00;;;;;8.75;78.39;102039.59;4998389;28;45242;-72
2021/12/12 04:32:42;;;;;;;;;13.25;10.00;;;;;8.77;78.77;102048.50;4997904;28;45297;-72
2021/12/12 04:35:13;;;;;;;;;14.25;10.25;;;;;8.79;77.81;102046.84;4999019;28;45352;-72
2021/12/12 04:37:39;;;;;;;;;14.50;10.50;;;;;8.73;77.69;102035.97;4998465;28;45419;-72
2021/12/12 04:40:10;;;;;;;;;11.00;9.75;;;;;8.80;77.50;102048.66;4998828;28;46622;-72
2021/12/12 04:42:38;;;;;;;;;13.00;11.50;;;;;8.77;78.09;102040.59;4998209;28;45344;-72
2021/12/12 04:45:42;;;;;;;;;15.00;9.50;;;;;8.81;77.83;102053.09;4993857;28;45305;-72
2021/12/12 04:51:06;;;;;;;;;11.00;10.00;;;;;8.79;77.00;102046.84;4986097;28;45310;-72
2021/12/12 04:53:41;;;;;;;;;11.50;10.75;;;;;8.71;78.22;102032.34;4998460;28;45286;-72
2021/12/12 04:56:28;;;;;;;;;13.50;8.50;;;;;8.84;78.57;102060.25;5001224;28;45278;-72
2021/12/12 04:59:34;;;;;;;;;19.25;14.00;;;;;8.73;78.20;102035.97;5001253;28;45307;-72
2021/12/12 05:01:59;;;;;;;;;19.25;12.50;;;;;8.86;78.44;102056.88;5001369;28;45337;-72
2021/12/12 05:04:42;;;;;;;;;16.75;14.00;;;;;8.78;78.03;102049.41;5001819;28;45222;-72
2021/12/12 05:07:25;;;;;;;;;10.00;8.50;;;;;8.84;77.63;102055.88;5001553;28;45485;-71
2021/12/12 05:09:56;;;;;;;;;16.00;13.25;;;;;8.86;77.85;102061.25;5000294;28;45830;-71
2021/12/12 05:12:25;;;;;;;;;14.50;12.75;;;;;8.89;77.91;102062.31;5000771;28;45476;-72
2021/12/12 05:14:57;;;;;;;;;12.25;10.75;;;;;8.75;77.32;102044.88;5001639;28;45239;-72
2021/12/12 05:17:37;;;;;;;;;14.50;13.25;;;;;8.88;78.65;102065.78;5001162;28;45275;-72
2021/12/12 05:20:09;;;;;;;;;13.00;10.25;;;;;8.81;78.80;102050.47;5001842;28;45172;-72
2021/12/12 05:22:42;;;;;;;;;16.25;11.00;;;;;8.83;77.76;102059.38;5001138;28;46270;-72
2021/12/12 05:25:13;;;;;;;;;16.25;16.25;;;;;8.91;78.50;102065.94;5001819;28;45272;-72
2021/12/12 05:27:39;;;;;;;;;15.25;14.25;;;;;8.88;78.45;102067.53;5001059;28;45931;-72
2021/12/12 05:30:16;;;;;;;;;13.50;11.75;;;;;8.86;78.28;102075.34;5001475;28;45425;-72
2021/12/12 05:32:43;;;;;;;;;15.50;14.00;;;;;8.89;78.61;102075.50;5000338;28;46605;-72
2021/12/12 05:35:11;;;;;;;;;15.00;11.25;;;;;8.81;78.98;102053.09;5001211;28;45235;-72
2021/12/12 05:37:37;;;;;;;;;15.25;14.00;;;;;8.93;78.81;102077.47;5016208;28;45416;-72
2021/12/12 05:40:08;;;;;;;;;14.25;11.75;;;;;8.92;78.78;102074.75;5013444;28;47576;-72
2021/12/12 05:42:34;;;;;;;;;17.00;13.75;;;;;8.85;78.69;102062.06;5000345;28;45381;-72
2021/12/12 05:45:01;;;;;;;;;12.00;12.00;;;;;8.99;78.92;102078.59;5001371;28;45254;-72
2021/12/12 05:47:27;;;;;;;;;14.75;12.25;;;;;9.04;78.40;102085.00;4999317;28;45321;-72
2021/12/12 05:49:53;;;;;;;;;11.00;10.75;;;;;9.06;78.79;102084.28;5001225;28;45502;-72
2021/12/12 05:52:21;;;;;;;;;13.50;11.50;;;;;8.92;78.34;102054.56;5000196;28;45558;-72
2021/12/12 05:54:48;;;;;;;;;16.50;14.25;;;;;8.87;78.35;102049.88;5001246;28;45271;-72
2021/12/12 05:57:19;;;;;;;;;15.75;11.00;;;;;9.01;79.43;102075.22;5000215;28;45267;-72
2021/12/12 05:59:46;;;;;;;;;16.00;14.00;;;;;9.02;79.10;102082.31;4994777;28;45325;-72
2021/12/12 06:02:12;;;;;;;;;15.00;10.75;;;;;8.89;78.86;102064.94;5000269;28;46840;-72
2021/12/12 06:04:37;;;;;;;;;11.25;10.25;;;;;9.06;78.99;102100.09;5001016;28;45327;-72
2021/12/12 06:07:06;;;;;;;;;12.50;10.75;;;;;9.01;78.95;102095.41;5015482;28;45344;-72
2021/12/12 06:09:33;;;;;;;;;14.50;12.25;;;;;9.06;78.65;102105.38;5000823;28;45384;-72
2021/12/12 06:12:01;;;;;;;;;12.50;12.25;;;;;9.06;77.99;102110.66;4998416;28;47420;-72
2021/12/12 06:14:29;;;;;;;;;13.50;10.25;;;;;9.10;77.95;102109.06;5000831;28;45364;-72
2021/12/12 06:16:55;;;;;;;;;14.00;11.00;;;;;9.09;78.50;102112.53;5000292;28;45328;-72
2021/12/12 06:19:23;;;;;;;;;11.00;10.75;;;;;9.06;78.27;102118.56;5000642;28;45219;-72
2021/12/12 06:21:54;;;;;;;;;14.25;12.75;;;;;9.07;78.86;102108.91;5000076;28;45687;-72
2021/12/12 06:24:21;;;;;;;;;16.75;13.50;;;;;9.13;79.04;102128.63;5015631;28;45631;-72
2021/12/12 06:26:47;;;;;;;;;15.25;14.75;;;;;9.01;79.02;102098.94;4999941;28;45227;-72
2021/12/12 06:29:13;;;;;;;;;13.50;10.75;;;;;9.06;79.04;102108.00;4999248;28;46333;-72
2021/12/12 06:31:42;;;;;;;;;13.75;12.25;;;;;9.09;78.42;102120.44;4999859;28;45563;-72
2021/12/12 06:34:09;;;;;;;;;14.50;12.00;;;;;9.00;79.42;102110.34;5000636;28;45325;-72
2021/12/12 06:36:35;;;;;;;;;11.75;9.75;;;;;8.99;78.47;102113.81;4999904;28;45357;-72
2021/12/12 06:39:03;;;;;;;;;11.00;9.75;;;;;9.16;77.73;102139.31;5015575;28;46289;-72
2021/12/12 06:41:29;;;;;;;;;12.25;10.50;;;;;9.12;78.27;102134.69;4999485;28;45350;-72
2021/12/12 06:43:56;;;;;;;;;10.25;9.25;;;;;9.08;78.05;102126.56;4998944;28;45290;-72
2021/12/12 06:46:23;;;;;;;;;18.50;11.00;;;;;9.11;78.84;102134.63;4992607;28;45503;-71
2021/12/12 06:48:49;;;;;;;;;14.50;10.25;;;;;9.18;78.88;102149.94;4995600;28;46311;-72
2021/12/12 06:51:16;;;;;;;;;15.00;10.25;;;;;9.18;78.35;102148.19;4999600;28;45315;-72
2021/12/12 06:53:43;;;;;;;;;12.75;9.00;;;;;9.19;78.58;102146.50;5000134;28;45293;-71
2021/12/12 06:56:10;;;;;;;;;11.25;9.50;;;;;9.09;78.78;102137.19;4999107;28;45488;-71
2021/12/12 06:58:36;;;;;;;;;11.25;8.00;;;;;9.09;77.42;102133.63;4998037;28;45527;-72
2021/12/12 07:01:10;;;;;;;;;11.75;10.50;;;;;9.18;78.29;102148.19;4999594;28;45081;-72
2021/12/12 07:03:37;;;;;;;;;15.00;10.75;;;;;9.12;77.46;102150.53;4999876;28;45449;-72
2021/12/12 07:06:04;;;;;;;;;5.00;4.25;;;;;9.01;78.70;102127.06;4999680;28;45280;-72
2021/12/12 07:08:29;;;;;;;;;12.00;10.25;;;;;9.12;78.27;102146.97;4999712;28;45310;-72
2021/12/12 07:10:55;;;;;;;;;11.50;10.25;;;;;9.10;78.38;102149.56;4996375;28;47350;-72
2021/12/12 07:13:22;;;;;;;;;12.00;11.25;;;;;9.16;79.06;102157.78;5000028;28;45401;-72
2021/12/12 07:15:55;;;;;;;;;12.00;12.00;;;;;9.21;78.44;102163.28;4999612;28;45421;-72
2021/12/12 07:18:27;;;;;;;;;18.25;13.00;;;;;9.17;79.11;102154.31;4998857;28;45479;-72
2021/12/12 07:20:57;;;;;;;;;11.25;10.50;;;;;9.13;78.75;102155.00;4999209;28;45494;-72
2021/12/12 07:23:23;;;;;;;;;13.25;12.25;;;;;9.18;78.88;102158.75;5014699;28;45466;-72
2021/12/12 07:25:49;;;;;;;;;15.50;10.75;;;;;9.23;79.56;102163.38;4999226;28;45478;-71
2021/12/12 07:28:15;;;;;;;;;9.50;8.00;;;;;9.25;77.84;102170.53;4998780;28;45480;-72
2021/12/12 07:30:42;;;;;;;;;9.00;9.00;;;;;9.22;78.16;102174.75;4995988;28;45770;-72
2021/12/12 07:33:09;;;;;;;;;9.75;9.00;;;;;9.12;78.67;102160.16;4995276;28;45505;-72
2021/12/12 07:35:37;;;;;;;;;10.50;7.00;;;;;9.19;79.50;102171.13;5014313;28;45442;-71
2021/12/12 07:38:06;;;;;;;;;15.25;12.00;;;;;9.23;78.66;102177.47;4999225;28;47095;-71
2021/12/12 07:40:32;;;;;;;;;14.00;11.00;;;;;9.23;79.07;102172.19;5014002;28;48127;-72
2021/12/12 07:42:58;;;;;;;;;10.25;10.00;;;;;9.28;78.93;102183.91;4998848;28;45301;-72
2021/12/12 07:45:25;;;;;;;;;12.25;10.25;;;;;9.29;78.77;102177.78;4997184;28;45485;-73
2021/12/12 07:47:52;;;;;;;;;12.50;11.00;;;;;9.24;79.50;102173.09;5014091;28;45974;-72
2021/12/12 07:50:20;;;;;;;;;10.75;10.75;;;;;9.26;78.96;102182.91;4998143;28;46421;-72
2021/12/12 07:52:46;;;;;;;;;9.00;8.00;;;;;9.33;79.54;102178.88;5013154;28;45567;-71
2021/12/12 07:55:12;;;;;;;;;13.00;11.50;;;;;9.28;78.87;102175.06;4998522;28;45468;-72
2021/12/12 07:57:38;;;;;;;;;9.00;9.00;;;;;9.22;78.89;102164.22;4998090;28;45509;-71
2021/12/12 08:00:10;;;;;;;;;13.25;11.25;;;;;9.37;79.08;102194.91;4998455;28;45183;-71
2021/12/12 08:02:36;;;;;;;;;14.75;10.50;;;;;9.39;78.66;102195.91;4997124;28;45447;-72
2021/12/12 08:05:03;;;;;;;;;13.50;10.00;;;;;9.35;79.34;102190.38;4998555;28;45350;-72
2021/12/12 08:07:29;;;;;;;;;14.00;10.75;;;;;9.25;79.53;102175.81;4997212;28;45561;-72
2021/12/12 08:09:55;;;;;;;;;16.00;12.50;;;;;9.35;79.76;102185.09;4998223;28;46408;-71
2021/12/12 08:12:25;;;;;;;;;15.75;12.50;;;;;9.38;79.04;102185.25;4997832;28;47343;-71
2021/12/12 08:14:51;;;;;;;;;10.00;10.00;;;;;9.35;78.76;102188.69;5013630;28;45436;-72
2021/12/12 08:17:20;;;;;;;;;14.50;10.50;;;;;9.43;78.78;102189.03;4997608;28;45624;-71
2021/12/12 08:19:47;;;;;;;;;11.00;9.25;;;;;9.46;79.73;102197.13;4997298;28;45382;-71
2021/12/12 08:22:13;;;;;;;;;13.25;11.50;;;;;9.53;79.10;102203.63;4997710;28;45474;-72
2021/12/12 08:24:40;;;;;;;;;10.00;10.00;;;;;9.56;78.92;102209.06;4998136;28;45465;-72
2021/12/12 08:27:08;;;;;;;;;9.50;9.00;;;;;9.48;79.02;102190.19;4997440;28;45394;-72
2021/12/12 08:29:36;;;;;;;;;8.50;8.00;;;;;9.47;79.54;102192.78;5000448;28;45365;-71
2021/12/12 08:32:10;;;;;;;;;11.75;10.75;;;;;9.60;79.01;102208.38;5001181;28;45670;-71
2021/12/12 08:34:36;;;;;;;;;10.00;8.25;;;;;9.64;78.95;102218.28;4999260;28;45415;-72
2021/12/12 08:37:04;;;;;;;;;9.25;9.25;;;;;9.68;78.76;102228.16;5000680;28;44783;-71
2021/12/12 08:39:29;;;;;;;;;10.75;9.75;;;;;9.50;78.92;102196.47;4999820;28;47306;-72
2021/12/12 08:41:56;;;;;;;;;12.75;10.00;;;;;9.59;78.74;102203.94;5000911;28;45285;-73
2021/12/12 08:44:23;;;;;;;;;13.00;11.00;;;;;9.64;78.68;102221.81;5002289;28;45406;-72
2021/12/12 08:46:51;;;;;;;;;12.75;11.25;;;;;9.74;78.03;102222.28;5001269;28;45335;-73
2021/12/12 08:49:18;;;;;;;;;11.00;9.25;;;;;9.71;78.64;102217.75;5001419;28;45488;-72
2021/12/12 08:51:50;;;;;;;;;8.50;8.25;;;;;9.80;78.92;102235.78;5000715;28;45431;-72
2021/12/12 08:54:24;;;;;;;;;10.00;9.50;;;;;9.85;78.19;102232.56;5002037;28;45382;-72
2021/12/12 08:57:05;;;;;;;;;9.75;8.50;;;;;9.88;78.78;102230.91;4999604;28;46917;-72
2021/12/12 08:59:35;;;;;;;;;7.50;6.25;;;;;9.90;77.89;102227.50;5001339;28;45348;-72
2021/12/12 09:02:07;;;;;;;;;11.25;10.00;;;;;9.97;78.36;102244.56;5001092;28;45459;-72
2021/12/12 09:04:38;;;;;;;;;9.00;8.25;;;;;9.86;78.31;102220.28;5002090;28;45452;-72
2021/12/12 09:07:10;;;;;;;;;8.75;8.50;;;;;9.86;77.79;102215.00;5000875;28;45436;-71
2021/12/12 09:09:50;;;;;;;;;9.25;8.25;;;;;9.97;77.66;102224.34;5001072;28;46272;-71
2021/12/12 09:12:21;;;;;;;;;7.75;7.75;;;;;10.06;77.96;102242.41;5000519;28;45353;-71
2021/12/12 09:14:58;;;;;;;;;10.00;9.00;;;;;10.11;78.61;102239.97;4999095;28;45274;-71
2021/12/12 09:17:35;;;;;;;;;12.00;10.75;;;;;10.18;77.96;102243.00;5000737;28;45550;-71
2021/12/12 09:20:33;;;;;;;;;14.50;10.75;;;;;10.21;78.16;102244.88;5000147;28;47352;-71
2021/12/12 09:23:07;;;;;;;;;5.75;5.75;;;;;10.22;78.51;102252.91;5016454;28;45472;-72
2021/12/12 09:25:43;;;;;;;;;6.25;6.25;;;;;10.24;78.39;102245.03;5001019;28;45331;-71
2021/12/12 09:28:31;;;;;;;;;9.25;8.25;;;;;10.28;77.95;102247.94;5000988;28;45326;-73
2021/12/12 09:31:02;;;;;;;;;10.00;10.00;;;;;10.29;77.74;102249.72;5000385;28;45250;-72
2021/12/12 09:33:51;;;;;;;;;10.00;9.00;;;;;10.28;78.42;102247.03;5001111;28;45455;-73
2021/12/12 09:36:28;;;;;;;;;10.00;8.00;;;;;10.38;78.24;102261.59;5000969;28;45479;-73
2021/12/12 09:39:17;;;;;;;;;9.50;8.00;;;;;10.43;78.46;102257.44;5000561;28;45362;-73
2021/12/12 09:42:10;;;;;;;;;11.50;9.75;;;;;10.45;77.73;102256.69;4999533;28;46266;-73
2021/12/12 09:44:48;;;;;;;;;11.00;9.00;;;;;10.50;78.34;102254.25;5016281;28;45301;-73
2021/12/12 09:53:42;;;;;;;;;9.50;8.25;;;;;10.68;78.11;102247.19;4999868;28;45720;-72
2021/12/12 09:56:45;;;;;;;;;12.75;9.75;;;;;10.74;77.62;102243.94;5011981;28;45908;-72
2021/12/12 09:59:40;;;;;;;;;11.00;11.00;;;;;10.81;78.43;102251.34;4994093;28;45342;-72
2021/12/12 10:02:14;;;;;;;;;11.25;10.00;;;;;10.89;77.95;102249.03;4999797;28;45456;-72
2021/12/12 10:05:10;;;;;;;;;7.25;7.25;;;;;10.96;78.13;102253.78;5000588;28;46764;-72
2021/12/12 10:08:03;;;;;;;;;6.75;6.75;;;;;11.04;77.96;102244.44;4993307;28;45333;-72
2021/12/12 10:10:36;;;;;;;;;9.75;9.75;;;;;11.06;76.98;102237.50;4989163;28;45602;-73
2021/12/12 10:13:21;;;;;;;;;11.25;9.75;;;;;11.18;78.09;102259.22;5000158;28;45227;-73
2021/12/12 10:15:54;;;;;;;;;11.50;9.50;;;;;11.22;76.95;102249.66;5000042;28;46259;-72
2021/12/12 10:18:55;;;;;;;;;9.00;7.25;;;;;11.35;77.43;102252.03;4999228;28;46294;-72
2021/12/12 10:21:47;;;;;;;;;11.00;11.00;;;;;11.42;77.13;102242.59;4999926;28;45317;-72
2021/12/12 10:24:12;;;;;;;;;5.25;5.25;;;;;11.61;76.83;102254.91;4999575;28;45353;-72
2021/12/12 10:26:41;;;;;;;;;10.25;9.75;;;;;11.68;76.56;102248.13;4999658;28;45242;-72
2021/12/12 10:29:13;;;;;;;;;12.25;10.25;;;;;11.71;76.72;102240.34;5000366;28;45306;-72
2021/12/12 10:31:52;;;;;;;;;11.50;11.00;;;;;11.95;76.09;102267.88;4999891;28;45391;-72
2021/12/12 10:34:23;;;;;;;;;12.25;10.00;;;;;12.03;75.38;102254.97;5000296;28;45325;-72
2021/12/12 10:36:59;;;;;;;;;12.00;12.00;;;;;12.01;75.28;102254.88;4999583;28;45451;-72
2021/12/12 10:39:28;;;;;;;;;9.25;7.50;;;;;12.10;74.79;102259.69;4999858;28;45384;-72
2021/12/12 10:42:05;;;;;;;;;12.00;9.00;;;;;12.11;75.26;102255.28;5010857;28;45317;-71
2021/12/12 10:44:59;;;;;;;;;9.50;8.25;;;;;12.04;74.95;102233.84;4997941;28;45323;-72
2021/12/12 10:47:36;;;;;;;;;10.00;10.00;;;;;12.18;74.44;102250.28;4998672;28;45259;-72
2021/12/12 10:50:14;;;;;;;;;10.75;8.50;;;;;12.20;74.62;102258.31;5000035;28;45238;-73
2021/12/12 10:53:17;;;;;;;;;8.00;8.00;;;;;12.19;74.48;102256.50;4998319;28;44830;-72
2021/12/12 10:56:20;;;;;;;;;7.25;6.00;;;;;12.19;74.55;102254.75;4999385;28;45526;-79
2021/12/12 10:58:51;;;;;;;;;8.50;8.50;;;;;12.12;74.57;102243.81;4999219;28;45223;-72
2021/12/12 11:01:27;;;;;;;;;11.00;9.75;;;;;12.22;74.92;102260.19;4999120;28;45341;-72
2021/12/12 11:03:55;;;;;;;;;8.00;7.25;;;;;12.25;74.98;102265.59;4999870;28;45365;-71
2021/12/12 11:06:34;;;;;;;;;9.00;9.00;;;;;12.22;74.85;102249.56;4997165;28;46267;-72
2021/12/12 11:09:14;;;;;;;;;10.25;9.25;;;;;12.23;74.63;102254.03;5014544;28;48164;-73
2021/12/12 11:11:43;;;;;;;;;8.33;6.67;;;;;12.28;74.50;102257.78;4998372;28;45258;-72
2021/12/12 11:14:34;;;;;;;;;6.75;6.75;;;;;12.28;74.32;102252.47;4999787;28;45402;-77
2021/12/12 11:17:19;;;;;;;;;7.00;7.00;;;;;12.32;74.03;102258.78;4999142;28;45354;-73
2021/12/12 11:20:13;;;;;;;;;6.50;6.00;;;;;12.39;74.76;102259.97;4998872;28;45632;-72
2021/12/12 11:22:44;;;;;;;;;11.67;8.00;;;;;12.28;74.28;102246.28;4997468;28;45259;-73
2021/12/12 11:25:34;;;;;;;;;16.75;14.50;;;;;12.36;74.69;102254.53;4999487;28;45436;-74
2021/12/12 11:28:06;;;;;;;;;16.75;12.50;;;;;12.42;74.34;102262.75;4992466;28;45527;-73
2021/12/12 11:30:43;;;;;;;;;15.33;14.67;;;;;12.36;74.57;102250.13;4998620;28;45729;-73
2021/12/12 11:33:14;;;;;;;;;13.50;13.50;;;;;12.35;74.38;102252.72;4999225;28;45255;-73
2021/12/12 11:35:42;;;;;;;;;8.33;8.33;;;;;12.39;74.76;102271.47;5014025;28;45441;-73
2021/12/12 11:38:35;;;;;;;;;10.67;10.67;;;;;12.38;74.26;102258.13;4998945;28;45501;-73
2021/12/12 11:41:11;;;;;;;;;10.67;8.67;;;;;12.37;75.35;102261.63;5013155;28;48440;-73
2021/12/12 11:44:07;;;;;;;;;7.00;7.00;;;;;12.38;75.04;102253.75;4998469;28;45415;-73
2021/12/12 11:46:50;;;;;;;;;6.00;6.00;;;;;12.41;74.37;102251.22;4996455;28;45555;-73
2021/12/12 11:49:23;;;;;;;;;8.67;8.00;;;;;12.43;74.87;102259.22;4989939;28;45306;-73
2021/12/12 11:52:03;;;;;;;;;12.67;9.33;;;;;12.42;74.89;102254.78;4998336;28;45525;-73
2021/12/12 11:54:40;;;;;;;;;9.00;6.33;;;;;12.43;74.91;102256.56;4997729;28;45288;-73
2021/12/12 11:57:18;;;;;;;;;7.00;7.00;;;;;12.38;75.04;102243.16;4998314;28;45397;-72
2021/12/12 11:59:58;;;;;;;;;7.67;7.33;;;;;12.36;74.01;102244.84;5014297;28;47724;-73
2021/12/12 12:02:46;;;;;;;;;7.67;7.67;;;;;12.45;74.79;102257.56;4991437;28;48083;-73
2021/12/12 12:05:30;;;;;;;;;7.00;7.00;;;;;12.43;74.19;102260.13;5002271;28;45215;-73
2021/12/12 12:08:16;;;;;;;;;6.00;6.00;;;;;12.43;75.16;102259.22;5000172;28;45503;-73